createdAt,value
2022-09-03T00:02:28.450Z,1.30
2022-09-03T00:05:58.002Z,1.00
2022-09-03T00:09:27.826Z,1.20
2022-09-03T00:12:56.412Z,0.98
2022-09-03T00:16:24.756Z,0.90
2022-09-03T00:19:55.239Z,1.10
2022-09-03T00:23:23.523Z,0.80
2022-09-03T00:26:52.526Z,0.70
2022-09-03T00:30:17.843Z,1.20
2022-09-03T00:33:44.792Z,1.10
2022-09-03T00:37:07.343Z,1.20
2022-09-03T00:40:57.900Z,1.00
2022-09-03T00:44:48.761Z,0.90
2022-09-03T00:48:20.530Z,0.80
2022-09-03T00:55:33.077Z,0.77
2022-09-03T00:59:11.088Z,0.70
2022-09-03T01:02:47.943Z,0.70
2022-09-03T01:06:21.069Z,0.70
2022-09-03T01:09:55.603Z,0.70
2022-09-03T01:13:22.250Z,0.80
2022-09-03T01:16:53.093Z,1.10
2022-09-03T01:20:37.046Z,0.98
2022-09-03T01:24:23.868Z,0.88
2022-09-03T01:28:10.686Z,0.80
2022-09-03T01:31:42.862Z,0.93
2022-09-03T01:35:16.889Z,0.82
2022-09-03T01:38:48.445Z,1.08
2022-09-03T01:42:21.538Z,1.60
2022-09-03T01:45:55.137Z,1.65
2022-09-03T01:49:26.101Z,1.33
2022-09-03T01:52:56.984Z,1.40
2022-09-03T01:56:39.080Z,1.80
2022-09-03T02:00:06.411Z,1.20
2022-09-03T02:03:40.905Z,0.90
2022-09-03T02:07:06.465Z,2.50
2022-09-03T02:10:33.727Z,1.80
2022-09-03T02:14:00.496Z,1.30
2022-09-03T02:17:23.740Z,1.00
2022-09-03T02:20:49.690Z,0.90
2022-09-03T02:24:12.631Z,2.03
2022-09-03T02:27:36.102Z,0.85
2022-09-03T02:30:59.030Z,0.65
2022-09-03T02:34:22.025Z,1.10
2022-09-03T02:37:46.108Z,1.05
2022-09-03T02:41:08.864Z,1.13
2022-09-03T02:44:35.101Z,1.00
2022-09-03T02:48:02.255Z,0.85
2022-09-03T02:51:24.810Z,0.90
2022-09-03T02:54:51.145Z,1.00
2022-09-03T02:58:13.936Z,1.38
2022-09-03T03:01:38.417Z,1.40
2022-09-03T03:05:04.938Z,1.63
2022-09-03T03:08:30.940Z,1.70
2022-09-03T03:11:55.877Z,1.50
2022-09-03T03:15:18.838Z,1.40
2022-09-03T03:18:42.109Z,1.23
2022-09-03T03:22:05.066Z,1.13
2022-09-03T03:25:27.722Z,1.45
2022-09-03T03:28:57.846Z,1.60
2022-09-03T03:32:20.707Z,2.13
2022-09-03T03:35:43.663Z,1.77
2022-09-03T03:39:06.520Z,1.60
2022-09-03T03:42:29.482Z,1.00
2022-09-03T03:46:00.567Z,1.98
2022-09-03T03:49:23.801Z,1.52
2022-09-03T03:52:46.450Z,1.25
2022-09-03T03:56:11.866Z,1.20
2022-09-03T03:59:34.826Z,1.30
2022-09-03T04:02:59.423Z,1.00
2022-09-03T04:06:22.797Z,0.95
2022-09-03T04:09:46.060Z,1.52
2022-09-03T04:13:08.819Z,1.40
2022-09-03T04:16:32.519Z,1.98
2022-09-03T04:19:56.685Z,1.48
2022-09-03T04:23:19.846Z,1.48
2022-09-03T04:26:42.805Z,1.20
2022-09-03T04:30:06.278Z,1.20
2022-09-03T04:33:29.136Z,1.33
2022-09-03T04:36:54.556Z,1.17
2022-09-03T04:40:17.968Z,2.42
2022-09-03T04:43:43.038Z,8.23
2022-09-03T04:47:05.787Z,2.38
2022-09-03T04:50:29.157Z,1.65
2022-09-03T04:53:57.171Z,1.40
2022-09-03T04:57:20.709Z,1.52
2022-09-03T05:00:43.596Z,2.00
2022-09-03T05:04:10.017Z,1.10
2022-09-03T05:07:38.976Z,1.17
2022-09-03T05:11:03.710Z,1.00
2022-09-03T05:14:26.671Z,1.98
2022-09-03T05:17:49.735Z,2.00
2022-09-03T05:21:14.131Z,1.20
2022-09-03T05:24:36.886Z,2.08
2022-09-03T05:28:02.300Z,1.20
2022-09-03T05:31:28.600Z,1.08
2022-09-03T05:34:51.605Z,0.88
2022-09-03T05:38:14.966Z,1.00
2022-09-03T05:41:37.420Z,1.10
2022-09-03T05:45:02.114Z,1.30
2022-09-03T05:48:24.850Z,1.83
2022-09-03T05:51:47.936Z,1.33
2022-09-03T05:55:13.582Z,0.88
2022-09-03T05:58:40.981Z,1.05
2022-09-03T06:02:05.910Z,0.95
2022-09-03T06:05:29.197Z,1.27
2022-09-03T06:08:52.153Z,1.20
2022-09-03T06:12:14.809Z,0.80
2022-09-03T06:15:37.764Z,1.02
2022-09-03T06:19:03.183Z,1.10
2022-09-03T06:22:28.812Z,0.75
2022-09-03T06:26:05.053Z,0.73
2022-09-03T06:29:28.958Z,0.75
2022-09-03T06:32:52.991Z,0.95
2022-09-03T06:36:19.495Z,0.85
2022-09-03T06:39:42.500Z,0.57
2022-09-03T06:43:05.308Z,0.65
2022-09-03T06:46:28.467Z,0.88
2022-09-03T06:49:51.944Z,0.70
2022-09-03T06:53:17.156Z,0.77
2022-09-03T06:56:42.467Z,0.85
2022-09-03T07:00:06.150Z,0.60
2022-09-03T07:03:28.903Z,0.50
2022-09-03T07:06:52.005Z,0.80
2022-09-03T07:10:16.765Z,0.68
2022-09-03T07:13:41.368Z,0.52
2022-09-03T07:17:04.529Z,0.60
2022-09-03T07:20:27.180Z,2.35
2022-09-03T07:23:50.551Z,0.75
2022-09-03T07:27:15.253Z,0.60
2022-09-03T07:30:38.211Z,0.60
2022-09-03T07:34:06.197Z,0.50
2022-09-03T07:37:34.069Z,0.57
2022-09-03T07:41:00.816Z,0.70
2022-09-03T07:44:25.615Z,0.40
2022-09-03T07:47:52.161Z,0.40
2022-09-03T07:51:15.221Z,0.50
2022-09-03T07:54:38.181Z,0.70
2022-09-03T07:58:01.654Z,0.40
2022-09-03T08:01:27.890Z,0.60
2022-09-03T08:04:50.951Z,0.40
2022-09-03T08:08:15.548Z,0.60
2022-09-03T08:11:41.173Z,0.43
2022-09-03T08:15:04.240Z,0.50
2022-09-03T08:18:36.007Z,0.40
2022-09-03T08:21:59.169Z,0.40
2022-09-03T08:25:21.825Z,0.45
2022-09-03T08:28:45.189Z,0.30
2022-09-03T08:32:07.942Z,1.30
2022-09-03T08:35:35.308Z,0.43
2022-09-03T08:39:00.007Z,0.55
2022-09-03T08:42:31.571Z,0.50
2022-09-03T08:45:54.534Z,0.45
2022-09-03T08:49:23.537Z,0.40
2022-09-03T08:52:51.816Z,0.45
2022-09-03T08:56:29.535Z,0.45
2022-09-03T08:59:56.482Z,0.80
2022-09-03T09:03:36.741Z,0.50
2022-09-03T09:07:07.587Z,0.50
2022-09-03T09:10:39.970Z,0.32
2022-09-03T09:14:06.516Z,0.50
2022-09-03T09:17:59.068Z,0.50
2022-09-03T09:21:29.499Z,0.40
2022-09-03T09:24:55.945Z,0.30
2022-09-03T09:28:22.790Z,0.30
2022-09-03T09:31:46.368Z,0.30
2022-09-03T09:35:12.710Z,0.40
2022-09-03T09:38:37.201Z,0.30
2022-09-03T09:42:02.721Z,0.50
2022-09-03T09:45:27.222Z,0.28
2022-09-03T09:48:53.350Z,0.30
2022-09-03T09:52:18.364Z,0.35
2022-09-03T09:55:51.154Z,0.38
2022-09-03T09:59:15.850Z,0.35
2022-09-03T10:02:42.755Z,1.95
2022-09-03T10:06:26.041Z,0.45
2022-09-03T10:09:59.758Z,0.60
2022-09-03T10:13:29.368Z,0.40
2022-09-03T10:17:00.731Z,0.50
2022-09-03T10:20:34.251Z,0.50
2022-09-03T10:24:07.167Z,1.00
2022-09-03T10:27:31.989Z,0.47
2022-09-03T10:31:38.203Z,0.40
2022-09-03T10:35:10.891Z,0.50
2022-09-03T10:38:38.258Z,0.80
2022-09-03T10:42:14.630Z,15.73
2022-09-03T10:45:43.219Z,0.70
2022-09-03T10:49:30.552Z,0.80
2022-09-03T10:53:09.385Z,0.40
2022-09-03T10:56:44.125Z,0.60
2022-09-03T11:00:11.183Z,0.30
2022-09-03T11:03:46.226Z,0.30
2022-09-03T11:07:14.403Z,0.38
2022-09-03T11:10:41.565Z,0.40
2022-09-03T11:14:10.891Z,0.45
2022-09-03T11:21:08.848Z,0.30
2022-09-03T11:24:35.932Z,0.30
2022-09-03T11:28:12.066Z,0.47
2022-09-03T11:31:48.677Z,0.40
2022-09-03T11:35:17.583Z,0.30
2022-09-03T11:38:40.230Z,0.40
2022-09-03T11:42:07.493Z,0.52
2022-09-03T11:45:38.717Z,0.38
2022-09-03T11:49:15.258Z,0.43
2022-09-03T11:52:41.078Z,0.50
2022-09-03T11:56:19.358Z,0.47
2022-09-03T11:59:44.991Z,1.23
2022-09-03T12:03:09.180Z,0.40
2022-09-03T12:07:05.935Z,0.40
2022-09-03T12:10:38.828Z,0.38
2022-09-03T12:14:13.496Z,1.20
2022-09-03T12:17:46.765Z,0.68
2022-09-03T12:21:12.082Z,1.05
2022-09-03T12:24:38.414Z,0.90
2022-09-03T12:28:03.732Z,0.38
2022-09-03T12:31:30.293Z,0.30
2022-09-03T12:34:53.235Z,0.85
2022-09-03T12:38:18.803Z,2.60
2022-09-03T12:41:59.738Z,2.35
2022-09-03T12:45:25.247Z,0.60
2022-09-03T12:52:44.253Z,0.73
2022-09-03T12:56:06.909Z,1.20
2022-09-03T12:59:35.903Z,0.50
2022-09-03T13:03:05.217Z,0.70
2022-09-03T13:06:33.606Z,0.52
2022-09-03T13:10:05.269Z,0.70
2022-09-03T13:13:30.275Z,0.88
2022-09-03T13:17:11.772Z,8.07
2022-09-03T13:20:50.292Z,1.30
2022-09-03T13:24:30.253Z,0.80
2022-09-03T13:28:03.042Z,1.00
2022-09-03T13:31:33.277Z,0.88
2022-09-03T13:35:02.277Z,0.82
2022-09-03T13:42:06.633Z,1.38
2022-09-03T13:45:37.607Z,0.90
2022-09-03T13:49:26.239Z,2.25
2022-09-03T13:52:57.694Z,1.10
2022-09-03T13:56:36.937Z,1.80
2022-09-03T14:00:05.330Z,3.17
2022-09-03T14:03:35.108Z,1.90
2022-09-03T14:07:04.968Z,9.02
2022-09-03T14:10:41.038Z,6.18
2022-09-03T14:14:14.235Z,3.03
2022-09-03T14:17:43.541Z,1.40
2022-09-03T14:24:46.258Z,1.20
2022-09-03T14:28:27.650Z,2.25
2022-09-03T14:32:24.913Z,5.60
2022-09-03T14:36:04.874Z,3.15
2022-09-03T14:39:35.869Z,3.28
2022-09-03T14:43:16.067Z,5.72
2022-09-03T14:46:55.938Z,2.63
2022-09-03T14:50:33.962Z,3.45
2022-09-03T14:54:40.638Z,3.17
2022-09-03T14:58:20.909Z,1.10
2022-09-03T15:01:47.556Z,1.17
2022-09-03T15:05:15.634Z,0.82
2022-09-03T15:08:53.203Z,0.88
2022-09-03T15:12:23.261Z,1.10
2022-09-03T15:16:02.203Z,6.97
2022-09-03T15:19:51.268Z,2.97
2022-09-03T15:23:27.746Z,3.65
2022-09-03T15:27:05.762Z,2.85
2022-09-03T15:30:37.834Z,1.63
2022-09-03T15:34:09.701Z,2.55
2022-09-03T15:37:43.137Z,5.45
2022-09-03T15:41:12.139Z,3.80
2022-09-03T15:44:41.929Z,3.33
2022-09-03T15:48:15.741Z,2.30
2022-09-03T15:51:48.017Z,2.20
2022-09-03T15:55:16.099Z,1.77
2022-09-03T15:58:43.876Z,1.10
2022-09-03T16:02:11.654Z,0.88
2022-09-03T16:05:43.106Z,0.77
2022-09-03T16:09:12.111Z,1.10
2022-09-03T16:12:46.944Z,1.10
2022-09-03T16:16:14.163Z,2.20
2022-09-03T16:19:44.338Z,2.45
2022-09-03T16:23:14.261Z,1.83
2022-09-03T16:26:44.586Z,1.92
2022-09-03T16:30:14.613Z,1.30
2022-09-03T16:33:48.736Z,1.95
2022-09-03T16:37:20.808Z,2.15
2022-09-03T16:40:51.352Z,2.35
2022-09-03T16:44:22.605Z,1.85
2022-09-03T16:48:03.151Z,2.58
2022-09-03T16:51:35.759Z,2.97
2022-09-03T16:55:11.113Z,4.30
2022-09-03T16:58:47.280Z,6.15
2022-09-03T17:02:41.078Z,7.63
2022-09-03T17:06:31.365Z,7.72
2022-09-03T17:10:02.616Z,6.47
2022-09-03T17:13:57.158Z,6.53
2022-09-03T17:17:33.800Z,6.50
2022-09-03T17:21:12.021Z,5.65
2022-09-03T17:24:45.421Z,4.95
2022-09-03T17:28:27.160Z,6.13
2022-09-03T17:31:56.163Z,4.75
2022-09-03T17:35:24.305Z,4.38
2022-09-03T17:39:27.541Z,4.80
2022-09-03T17:43:01.322Z,4.88
2022-09-03T17:46:33.272Z,3.60
2022-09-03T17:50:02.092Z,5.88
2022-09-03T17:53:31.297Z,11.40
2022-09-03T17:57:03.676Z,12.73
2022-09-03T18:00:35.644Z,11.90
2022-09-03T18:04:05.353Z,10.93
2022-09-03T18:07:34.671Z,10.30
2022-09-03T18:11:11.053Z,11.93
2022-09-03T18:14:39.745Z,9.23
2022-09-03T18:18:07.925Z,16.43
2022-09-03T18:21:53.822Z,20.52
2022-09-03T18:25:34.408Z,20.10
2022-09-03T18:29:20.396Z,11.27
2022-09-03T18:33:00.350Z,9.10
2022-09-03T18:36:42.358Z,7.72
2022-09-03T18:40:22.622Z,7.43
2022-09-03T18:57:27.068Z,4.15
2022-09-03T19:01:17.793Z,4.82
2022-09-03T19:05:13.152Z,4.63
2022-09-03T19:09:00.141Z,3.67
2022-09-03T19:12:59.056Z,3.83
2022-09-03T19:16:48.639Z,3.30
2022-09-03T19:20:37.268Z,3.55
2022-09-03T19:24:20.975Z,2.58
2022-09-03T19:28:14.054Z,3.38
2022-09-03T19:32:05.815Z,4.65
2022-09-03T19:35:56.195Z,3.55
2022-09-03T19:39:53.413Z,4.40
2022-09-03T19:43:43.416Z,4.82
2022-09-03T19:47:25.261Z,7.47
2022-09-03T19:51:28.414Z,6.25
2022-09-03T19:55:13.583Z,3.38
2022-09-03T19:58:59.105Z,3.15
2022-09-03T20:02:38.863Z,3.20
2022-09-03T20:06:20.512Z,3.20
2022-09-03T20:10:02.205Z,2.58
2022-09-03T20:13:24.317Z,2.22
2022-09-03T20:16:58.918Z,1.75
2022-09-03T20:20:27.583Z,1.27
2022-09-03T20:23:59.489Z,1.03
2022-09-03T20:27:32.103Z,1.70
2022-09-03T20:31:02.886Z,2.78
2022-09-03T20:34:37.691Z,2.95
2022-09-03T20:38:08.196Z,1.83
2022-09-03T20:41:38.563Z,3.38
2022-09-03T20:45:08.514Z,2.50
2022-09-03T20:48:36.961Z,2.20
2022-09-03T20:52:06.293Z,1.15
2022-09-03T20:55:30.915Z,1.75
2022-09-03T20:59:02.495Z,1.30
2022-09-03T21:02:38.676Z,1.45
2022-09-03T21:06:12.960Z,1.10
2022-09-03T21:09:45.336Z,1.10
2022-09-03T21:13:16.201Z,1.77
2022-09-03T21:16:44.360Z,1.77
2022-09-03T21:20:18.884Z,1.13
2022-09-03T21:23:44.544Z,1.08
2022-09-03T21:27:14.333Z,1.38
2022-09-03T21:30:40.901Z,0.75
2022-09-03T21:34:10.907Z,0.93
2022-09-03T21:37:36.095Z,1.02
2022-09-03T21:41:06.476Z,0.90
2022-09-03T21:44:46.538Z,1.05
2022-09-03T21:48:11.343Z,1.30
2022-09-03T21:51:38.777Z,1.55
2022-09-03T21:55:02.459Z,1.20
2022-09-03T21:58:38.547Z,0.93
2022-09-03T22:02:08.317Z,1.15
2022-09-03T22:05:34.488Z,1.70
2022-09-03T22:09:05.221Z,1.70
2022-09-03T22:12:33.919Z,1.33
2022-09-03T22:16:01.624Z,1.25
2022-09-03T22:19:25.516Z,1.33
2022-09-03T22:22:56.706Z,1.30
2022-09-03T22:26:30.163Z,1.02
2022-09-03T22:30:02.680Z,1.90
2022-09-03T22:33:28.926Z,1.63
2022-09-03T22:36:55.193Z,0.95
2022-09-03T22:40:26.079Z,0.90
2022-09-03T22:43:53.358Z,1.10
2022-09-03T22:47:26.477Z,1.38
2022-09-03T22:50:57.185Z,1.20
2022-09-03T22:54:37.313Z,1.05
2022-09-03T22:58:06.548Z,1.50
2022-09-03T23:01:34.867Z,1.10
2022-09-03T23:05:05.781Z,1.10
2022-09-03T23:08:33.787Z,0.98
2022-09-03T23:12:01.255Z,1.20
2022-09-03T23:15:30.456Z,0.82
2022-09-03T23:18:53.386Z,0.90
2022-09-03T23:22:22.190Z,1.10
2022-09-03T23:25:49.044Z,1.13
2022-09-03T23:29:16.201Z,1.00
2022-09-03T23:32:38.359Z,0.93
2022-09-03T23:36:14.015Z,0.90
2022-09-03T23:40:01.397Z,0.93
2022-09-03T23:43:53.776Z,1.10
2022-09-03T23:47:31.705Z,1.00
2022-09-03T23:51:05.364Z,1.00
2022-09-03T23:54:38.383Z,1.00
2022-09-03T23:58:10.507Z,0.70
